Tropical Cyclones
[Index]
Main Index Home Page Stock Weather Photos Extreme Storms Discussion Storm News and Storm Chasing Reports Tropical Cyclones / Hurricanes / Typhoons Weather Data and Links Wild Fires / Bushfires Weather Observation Techniques Weather Picture Catalogue Tornado Pictures and Reports Stock Video Footage and DVDs for sale
Season 2007-2008 Tropical Cyclone BONGWE Track Map
Season 2007-2008 Summaries (Operational Data): [AU] [SIO] [SPAC] [SH]
<<- Previous TC | 2007-2008 Season | Next TC ->>

click for intensity scale information  Lat/long Grid: Show Hide

 Date Labels: Show Hide

Operational Tropical Cyclone Data : JTWC Advisories

Name: BONGWE
Number: 0804

17 Nov 2007 21:00 UTC to 24 Nov 2007 12:00 UTC

    date/time    lat    long     hPa   cat  kts
2007-11-17 21    5.9    75.0                             
2007-11-18 03    7.1    75.0                             
2007-11-18 06    7.9    76.5                             
2007-11-18 12    8.3    75.5     999         25          
2007-11-18 18    8.8    76.3     997         30          
2007-11-19 00    9.7    76.4     996         30          
2007-11-19 06    9.9    77.2     994    1    40          
2007-11-19 12   10.3    77.1     987    2    50          
2007-11-19 18   11.0    76.6     987    2    50          
2007-11-20 00   10.9    75.9     980    2    55          
2007-11-20 06   11.6    75.5     980    2    55          
2007-11-20 12   11.6    74.0     985    2    50          
2007-11-20 18   11.9    73.2     988    1    45          
2007-11-21 00   13.1    72.3     992    1    40          
2007-11-21 06   12.9    71.9     990    1    40          
2007-11-21 12   13.5    71.1     987    1    45          
2007-11-21 18   13.7    70.2     987    1    45          
2007-11-22 00   13.9    69.8     984    2    50          
2007-11-22 06   14.0    70.0     976    2    60          
2007-11-22 12   14.0    69.8     980    2    55          
2007-11-22 18   13.8    69.7     980    2    55          
2007-11-23 00   13.8    69.3     988    1    45          
2007-11-23 06   13.7    68.8     991    1    40          
2007-11-23 12   13.1    68.0     995    1    35          
2007-11-23 18   13.0    67.3     997         30          
2007-11-24 00   13.0    66.7    1000         25          
2007-11-24 06   12.7    66.2    1000         25          
2007-11-24 12   12.9    65.5    1000         25          
Winds are 10-min average.

Tropical cyclone tracks developed by Michael Bath using operational warnings and advisories and Google Maps.


[Australian Severe Weather index] [Copyright Notice] [Email Contacts] [Search This Site] [Privacy Policy]
Document: tropical_cyclone_bongwe.htm Updated: 2 May 2017